Time;durP1;ratioP1;P1;durP2;ratioP2;P2;SDS_P1;SDS_P2;PMS_P1;PMS_P2;Temp;Humidity;BMP_temperature;BMP_pressure;BME280_temperature;BME280_humidity;BME280_pressure;Samples;Min_cycle;Max_cycle;Signal;HPM_P1;HPM_P2
2021/04/17 00:02:10;;;;;;;14.35;3.92;;;;;;;;;;4993237;28;20486;-64
2021/04/17 00:04:38;;;;;;;22.48;4.55;;;;;;;;;;4993507;28;20019;-64
2021/04/17 00:07:12;;;;;;;24.92;4.60;;;;;;;;;;4992832;28;20029;-64
2021/04/17 00:09:40;;;;;;;22.27;4.45;;;;;;;;;;4991665;28;20030;-61
2021/04/17 00:12:14;;;;;;;21.95;5.20;;;;;;;;;;4992618;28;20018;-64
2021/04/17 00:14:42;;;;;;;24.90;4.35;;;;;;;;;;4991699;28;20027;-66
2021/04/17 00:17:09;;;;;;;34.85;4.40;;;;;;;;;;4982409;28;20117;-63
2021/04/17 00:19:36;;;;;;;29.08;5.50;;;;;;;;;;4982040;28;20022;-63
2021/04/17 00:22:04;;;;;;;28.85;5.88;;;;;;;;;;4975183;28;20029;-63
2021/04/17 00:24:31;;;;;;;33.08;5.05;;;;;;;;;;4974463;28;20027;-62
2021/04/17 00:26:58;;;;;;;21.67;4.85;;;;;;;;;;4973603;28;20050;-63
2021/04/17 00:29:25;;;;;;;25.88;5.70;;;;;;;;;;4974241;28;20042;-62
2021/04/17 00:31:52;;;;;;;22.63;5.00;;;;;;;;;;4973814;28;20027;-63
2021/04/17 00:34:19;;;;;;;18.55;4.88;;;;;;;;;;4990962;28;20050;-64
2021/04/17 00:36:46;;;;;;;27.30;5.25;;;;;;;;;;4976554;28;20042;-62
2021/04/17 00:39:13;;;;;;;27.85;4.97;;;;;;;;;;4974031;28;20026;-63
2021/04/17 00:41:40;;;;;;;28.83;5.18;;;;;;;;;;4975551;28;20050;-63
2021/04/17 00:44:07;;;;;;;35.88;5.75;;;;;;;;;;4979963;28;20378;-62
2021/04/17 00:46:34;;;;;;;20.48;4.70;;;;;;;;;;4992628;28;20390;-63
2021/04/17 00:49:05;;;;;;;27.38;5.20;;;;;;;;;;4992722;28;20033;-63
2021/04/17 00:51:32;;;;;;;33.35;6.47;;;;;;;;;;4991502;28;20497;-62
2021/04/17 00:53:59;;;;;;;31.83;5.45;;;;;;;;;;4992976;28;20148;-63
2021/04/17 00:56:26;;;;;;;25.77;5.53;;;;;;;;;;4992997;28;20018;-63
2021/04/17 00:58:53;;;;;;;27.55;5.40;;;;;;;;;;4992780;28;20030;-63
2021/04/17 01:01:21;;;;;;;31.42;6.20;;;;;;;;;;4992659;28;20010;-63
2021/04/17 01:03:55;;;;;;;27.77;5.57;;;;;;;;;;4992973;28;20109;-63
2021/04/17 01:06:22;;;;;;;23.63;5.63;;;;;;;;;;4975536;28;20015;-62
2021/04/17 01:08:49;;;;;;;24.25;6.10;;;;;;;;;;4992789;28;20039;-63
2021/04/17 01:11:21;;;;;;;24.38;5.57;;;;;;;;;;4985204;28;20121;-63
2021/04/17 01:13:49;;;;;;;25.60;5.45;;;;;;;;;;4990283;28;20474;-63
2021/04/17 01:16:17;;;;;;;21.38;5.10;;;;;;;;;;4989997;28;20025;-63
2021/04/17 01:18:44;;;;;;;27.63;6.18;;;;;;;;;;4989887;28;20546;-63
2021/04/17 01:21:12;;;;;;;27.30;6.72;;;;;;;;;;4992195;28;20022;-63
2021/04/17 01:23:40;;;;;;;33.15;6.40;;;;;;;;;;4992488;28;20125;-63
2021/04/17 01:26:13;;;;;;;24.08;6.60;;;;;;;;;;4991945;28;20042;-62
2021/04/17 01:28:44;;;;;;;31.27;6.57;;;;;;;;;;4991080;28;20031;-62
2021/04/17 01:31:13;;;;;;;24.48;6.25;;;;;;;;;;4992300;28;20041;-62
2021/04/17 01:33:43;;;;;;;27.02;6.07;;;;;;;;;;4992478;28;20371;-62
2021/04/17 01:36:11;;;;;;;30.55;6.70;;;;;;;;;;4992201;28;20019;-62
2021/04/17 01:38:46;;;;;;;24.10;5.93;;;;;;;;;;4992265;28;20061;-62
2021/04/17 01:41:21;;;;;;;25.92;6.13;;;;;;;;;;4992346;28;20105;-63
2021/04/17 01:43:51;;;;;;;24.38;5.63;;;;;;;;;;4992341;28;20041;-63
2021/04/17 01:46:23;;;;;;;21.27;6.25;;;;;;;;;;4992237;28;20018;-62
2021/04/17 01:48:53;;;;;;;25.73;6.10;;;;;;;;;;4992272;28;20045;-63
2021/04/17 01:51:20;;;;;;;28.58;6.03;;;;;;;;;;4995528;28;20030;-63
2021/04/17 01:53:48;;;;;;;24.38;6.32;;;;;;;;;;4996050;28;20058;-63
2021/04/17 01:56:18;;;;;;;24.92;6.10;;;;;;;;;;4996234;28;20027;-63
2021/04/17 01:58:46;;;;;;;25.40;6.28;;;;;;;;;;4996510;28;20023;-63
2021/04/17 02:01:21;;;;;;;20.30;5.32;;;;;;;;;;4996052;28;20050;-63
2021/04/17 02:03:49;;;;;;;24.52;6.22;;;;;;;;;;4995582;28;20031;-63
2021/04/17 02:06:16;;;;;;;29.85;6.80;;;;;;;;;;4995614;28;20019;-63
2021/04/17 02:08:43;;;;;;;24.00;7.05;;;;;;;;;;4978747;28;20501;-63
2021/04/17 02:11:10;;;;;;;19.73;6.13;;;;;;;;;;4996063;28;20359;-63
2021/04/17 02:13:39;;;;;;;23.58;5.85;;;;;;;;;;4974898;28;20490;-63
2021/04/17 02:16:14;;;;;;;24.05;5.85;;;;;;;;;;4995189;28;20577;-62
2021/04/17 02:18:54;;;;;;;21.02;6.60;;;;;;;;;;4995308;28;20498;-62
2021/04/17 02:21:23;;;;;;;24.95;6.38;;;;;;;;;;4994562;28;20157;-63
2021/04/17 02:23:51;;;;;;;33.10;7.18;;;;;;;;;;4989713;28;20085;-62
2021/04/17 02:26:18;;;;;;;31.38;6.63;;;;;;;;;;4989814;28;20031;-60
2021/04/17 02:28:45;;;;;;;24.75;6.38;;;;;;;;;;4994724;28;20501;-68
2021/04/17 02:31:12;;;;;;;33.67;6.80;;;;;;;;;;4994141;28;20018;-64
2021/04/17 02:33:40;;;;;;;29.38;6.75;;;;;;;;;;4994253;28;20117;-65
2021/04/17 02:36:07;;;;;;;35.47;6.63;;;;;;;;;;4995220;28;20074;-65
2021/04/17 02:38:34;;;;;;;28.13;6.05;;;;;;;;;;4994854;28;20042;-65
2021/04/17 02:41:02;;;;;;;30.30;7.00;;;;;;;;;;4995801;28;20030;-69
2021/04/17 02:43:29;;;;;;;33.50;6.85;;;;;;;;;;4995316;28;20497;-65
2021/04/17 02:45:56;;;;;;;46.08;7.78;;;;;;;;;;4995149;28;20030;-66
2021/04/17 02:48:24;;;;;;;35.22;7.22;;;;;;;;;;4995344;28;20100;-65
2021/04/17 02:50:52;;;;;;;27.83;7.05;;;;;;;;;;4977945;28;20105;-66
2021/04/17 02:53:19;;;;;;;26.88;6.47;;;;;;;;;;4977897;28;20030;-65
2021/04/17 02:55:52;;;;;;;31.90;6.90;;;;;;;;;;4995140;28;20027;-66
2021/04/17 02:58:20;;;;;;;36.97;8.10;;;;;;;;;;4995341;28;20650;-65
2021/04/17 03:00:47;;;;;;;30.98;7.18;;;;;;;;;;4995056;28;20030;-65
2021/04/17 03:03:15;;;;;;;33.42;7.70;;;;;;;;;;4977793;28;20533;-66
2021/04/17 03:05:46;;;;;;;25.00;6.90;;;;;;;;;;4995306;28;20428;-64
2021/04/17 03:08:16;;;;;;;27.20;6.40;;;;;;;;;;4977339;28;20409;-67
2021/04/17 03:10:44;;;;;;;30.75;6.63;;;;;;;;;;4994915;28;20386;-66
2021/04/17 03:13:12;;;;;;;23.95;6.10;;;;;;;;;;4977434;28;20085;-65
2021/04/17 03:15:39;;;;;;;23.48;7.13;;;;;;;;;;4995141;28;20014;-64
2021/04/17 03:18:08;;;;;;;17.42;6.32;;;;;;;;;;4995189;28;20037;-65
2021/04/17 03:20:35;;;;;;;25.42;6.43;;;;;;;;;;4989884;28;20069;-60
2021/04/17 03:23:03;;;;;;;25.27;6.45;;;;;;;;;;4994113;28;20460;-62
2021/04/17 03:25:30;;;;;;;22.08;6.25;;;;;;;;;;4993299;28;20500;-62
2021/04/17 03:27:57;;;;;;;27.15;6.28;;;;;;;;;;4993807;28;20038;-61
2021/04/17 03:30:28;;;;;;;25.23;6.65;;;;;;;;;;4995261;28;20027;-61
2021/04/17 03:32:59;;;;;;;22.88;6.43;;;;;;;;;;4995205;28;20549;-61
2021/04/17 03:35:27;;;;;;;23.05;6.75;;;;;;;;;;4995238;28;20027;-62
2021/04/17 03:37:54;;;;;;;26.85;6.47;;;;;;;;;;4995165;28;20045;-61
2021/04/17 03:40:22;;;;;;;17.60;5.88;;;;;;;;;;4995039;28;20031;-61
2021/04/17 03:42:49;;;;;;;15.82;5.65;;;;;;;;;;4995092;28;20046;-61
2021/04/17 03:45:17;;;;;;;21.45;6.43;;;;;;;;;;4995077;28;20116;-62
2021/04/17 03:47:44;;;;;;;25.20;6.57;;;;;;;;;;4994768;28;20041;-62
2021/04/17 03:50:12;;;;;;;20.95;5.72;;;;;;;;;;4994879;28;20461;-61
2021/04/17 03:52:39;;;;;;;16.83;5.88;;;;;;;;;;4994811;28;20029;-62
2021/04/17 03:55:08;;;;;;;16.88;5.68;;;;;;;;;;4994855;28;20383;-61
2021/04/17 03:57:35;;;;;;;24.52;5.75;;;;;;;;;;4994807;28;20042;-61
2021/04/17 04:00:03;;;;;;;17.48;5.93;;;;;;;;;;4994649;28;20065;-61
2021/04/17 04:02:30;;;;;;;19.10;5.85;;;;;;;;;;4994851;28;20045;-61
2021/04/17 04:04:57;;;;;;;20.75;6.07;;;;;;;;;;4994520;28;20022;-61
2021/04/17 04:07:24;;;;;;;17.75;5.88;;;;;;;;;;4994467;28;20060;-62
2021/04/17 04:09:51;;;;;;;20.90;5.95;;;;;;;;;;4994448;28;20366;-61
2021/04/17 04:12:18;;;;;;;21.58;5.38;;;;;;;;;;4976788;28;20462;-61
2021/04/17 04:14:45;;;;;;;14.65;5.53;;;;;;;;;;4976969;28;20026;-62
2021/04/17 04:17:12;;;;;;;22.95;6.35;;;;;;;;;;4994536;28;20102;-61
2021/04/17 04:19:39;;;;;;;21.02;6.28;;;;;;;;;;4994258;28;20109;-62
2021/04/17 04:22:06;;;;;;;16.80;5.30;;;;;;;;;;4994208;28;20026;-61
2021/04/17 04:24:33;;;;;;;17.42;5.22;;;;;;;;;;4994197;28;20026;-61
2021/04/17 04:27:00;;;;;;;17.98;5.80;;;;;;;;;;4994008;28;20074;-61
2021/04/17 04:29:27;;;;;;;16.73;5.75;;;;;;;;;;4994033;28;20082;-62
2021/04/17 04:31:54;;;;;;;15.68;5.43;;;;;;;;;;4994288;28;20023;-61
2021/04/17 04:34:21;;;;;;;16.58;5.75;;;;;;;;;;4994053;28;20022;-60
2021/04/17 04:36:48;;;;;;;16.98;5.05;;;;;;;;;;4994061;28;20478;-61
2021/04/17 04:39:15;;;;;;;17.73;5.78;;;;;;;;;;4994041;28;20030;-61
2021/04/17 04:41:43;;;;;;;13.38;5.85;;;;;;;;;;4993991;28;20038;-61
2021/04/17 04:44:10;;;;;;;14.95;5.85;;;;;;;;;;4993892;28;20021;-60
2021/04/17 04:46:37;;;;;;;12.30;5.13;;;;;;;;;;4994113;28;20030;-62
2021/04/17 04:49:04;;;;;;;15.68;5.43;;;;;;;;;;4994007;28;20477;-61
2021/04/17 04:51:31;;;;;;;20.15;5.60;;;;;;;;;;4993687;28;20034;-61
2021/04/17 04:53:58;;;;;;;12.55;5.18;;;;;;;;;;4993557;28;20462;-61
2021/04/17 04:56:25;;;;;;;15.85;5.97;;;;;;;;;;4993831;28;20421;-61
2021/04/17 04:58:52;;;;;;;12.60;5.10;;;;;;;;;;4993638;28;20035;-61
2021/04/17 05:01:20;;;;;;;13.95;5.40;;;;;;;;;;4993605;28;20052;-61
2021/04/17 05:03:47;;;;;;;13.10;4.90;;;;;;;;;;4993778;28;20053;-62
2021/04/17 05:06:14;;;;;;;13.38;5.40;;;;;;;;;;4993551;28;20018;-61
2021/04/17 05:08:41;;;;;;;13.55;4.90;;;;;;;;;;4993243;28;20037;-61
2021/04/17 05:11:08;;;;;;;11.73;5.55;;;;;;;;;;4992289;28;20117;-62
2021/04/17 05:13:35;;;;;;;13.82;5.07;;;;;;;;;;4993440;28;20049;-62
2021/04/17 05:16:02;;;;;;;14.25;5.20;;;;;;;;;;4993264;28;20474;-61
2021/04/17 05:18:29;;;;;;;13.30;5.90;;;;;;;;;;4993457;28;20042;-61
2021/04/17 05:20:56;;;;;;;12.63;4.95;;;;;;;;;;4993214;28;20042;-62
2021/04/17 05:23:23;;;;;;;14.15;5.05;;;;;;;;;;4993089;28;20023;-61
2021/04/17 05:25:50;;;;;;;14.75;5.18;;;;;;;;;;4992455;28;20462;-62
2021/04/17 05:28:17;;;;;;;13.43;4.90;;;;;;;;;;4993256;28;20029;-62
2021/04/17 05:30:44;;;;;;;10.45;4.45;;;;;;;;;;4993193;28;20053;-61
2021/04/17 05:33:11;;;;;;;13.05;4.70;;;;;;;;;;4992015;28;20018;-62
2021/04/17 05:35:38;;;;;;;10.60;4.50;;;;;;;;;;4991849;28;20042;-62
2021/04/17 05:38:05;;;;;;;14.88;4.47;;;;;;;;;;4992977;28;20034;-61
2021/04/17 05:40:32;;;;;;;10.07;4.63;;;;;;;;;;4993248;28;20050;-61
2021/04/17 05:43:00;;;;;;;9.38;4.32;;;;;;;;;;4993064;28;20506;-61
2021/04/17 05:45:28;;;;;;;11.82;4.38;;;;;;;;;;4992908;28;20026;-62
2021/04/17 05:47:55;;;;;;;12.90;4.55;;;;;;;;;;4993083;28;20389;-61
2021/04/17 05:50:23;;;;;;;12.15;4.60;;;;;;;;;;4992847;28;20026;-61
2021/04/17 05:52:50;;;;;;;11.63;4.93;;;;;;;;;;4992943;28;20030;-61
2021/04/17 05:55:17;;;;;;;10.82;4.25;;;;;;;;;;4993152;28;20014;-61
2021/04/17 05:57:44;;;;;;;13.23;5.03;;;;;;;;;;4992815;28;20066;-61
2021/04/17 06:00:11;;;;;;;10.20;4.22;;;;;;;;;;4991530;28;20023;-61
2021/04/17 06:02:38;;;;;;;10.00;4.57;;;;;;;;;;4993120;28;20080;-61
2021/04/17 06:05:06;;;;;;;9.73;4.20;;;;;;;;;;4992829;28;20022;-61
2021/04/17 06:07:33;;;;;;;7.97;4.13;;;;;;;;;;4992855;28;20580;-61
2021/04/17 06:10:00;;;;;;;10.57;4.15;;;;;;;;;;4992905;28;20042;-61
2021/04/17 06:12:27;;;;;;;10.80;3.97;;;;;;;;;;4992809;28;20025;-62
2021/04/17 06:14:54;;;;;;;9.40;4.28;;;;;;;;;;4992783;28;20470;-61
2021/04/17 06:17:21;;;;;;;11.68;4.25;;;;;;;;;;4992897;28;20022;-61
2021/04/17 06:19:48;;;;;;;8.80;4.05;;;;;;;;;;4992845;28;20026;-61
2021/04/17 06:22:15;;;;;;;11.90;4.28;;;;;;;;;;4975391;28;20394;-61
2021/04/17 06:24:42;;;;;;;13.30;4.00;;;;;;;;;;4992843;28;20019;-61
2021/04/17 06:27:09;;;;;;;7.10;4.07;;;;;;;;;;4992732;28;20047;-61
2021/04/17 06:29:36;;;;;;;7.95;4.25;;;;;;;;;;4992596;28;20022;-62
2021/04/17 06:32:03;;;;;;;7.55;3.58;;;;;;;;;;4992656;28;20046;-61
2021/04/17 06:34:30;;;;;;;9.40;4.15;;;;;;;;;;4992023;28;21024;-59
2021/04/17 06:36:57;;;;;;;5.00;3.30;;;;;;;;;;4995058;28;20034;-61
2021/04/17 06:39:24;;;;;;;9.85;4.03;;;;;;;;;;4996248;28;20066;-62
2021/04/17 06:41:54;;;;;;;7.53;3.60;;;;;;;;;;4996311;28;20046;-61
2021/04/17 06:44:25;;;;;;;7.93;4.00;;;;;;;;;;4996147;28;20581;-60
2021/04/17 06:46:52;;;;;;;12.45;3.97;;;;;;;;;;4996141;28;20438;-61
2021/04/17 06:49:19;;;;;;;7.00;3.85;;;;;;;;;;4996107;28;20030;-61
2021/04/17 06:51:47;;;;;;;8.35;3.30;;;;;;;;;;4996047;28;20022;-60
2021/04/17 06:54:19;;;;;;;6.75;3.50;;;;;;;;;;4995881;28;20026;-60
2021/04/17 06:56:46;;;;;;;8.50;3.45;;;;;;;;;;4996144;28;20377;-61
2021/04/17 06:59:13;;;;;;;7.00;3.70;;;;;;;;;;4996001;28;20045;-61
2021/04/17 07:01:40;;;;;;;6.38;3.72;;;;;;;;;;4995777;28;20023;-61
2021/04/17 07:04:07;;;;;;;9.23;3.50;;;;;;;;;;4995858;28;20053;-61
2021/04/17 07:06:35;;;;;;;7.10;3.08;;;;;;;;;;4995795;28;20014;-62
2021/04/17 07:09:02;;;;;;;6.68;3.45;;;;;;;;;;4994435;28;20049;-61
2021/04/17 07:11:29;;;;;;;7.95;3.17;;;;;;;;;;4995585;28;20042;-61
2021/04/17 07:14:08;;;;;;;7.35;3.08;;;;;;;;;;4995760;28;20027;-61
2021/04/17 07:17:01;;;;;;;7.95;2.85;;;;;;;;;;4995485;28;20022;-61
2021/04/17 07:19:48;;;;;;;8.80;3.90;;;;;;;;;;4975104;28;20437;-61
2021/04/17 07:22:17;;;;;;;8.80;3.70;;;;;;;;;;4995458;28;20026;-61
2021/04/17 07:24:44;;;;;;;8.38;3.28;;;;;;;;;;4995346;28;20022;-61
2021/04/17 07:27:29;;;;;;;10.38;3.83;;;;;;;;;;4995133;28;20046;-62
2021/04/17 07:29:57;;;;;;;10.88;3.20;;;;;;;;;;4995392;28;20026;-61
2021/04/17 07:32:24;;;;;;;7.82;3.33;;;;;;;;;;4995488;28;20015;-62
2021/04/17 07:35:08;;;;;;;5.00;3.08;;;;;;;;;;4995278;28;20022;-61
2021/04/17 07:37:35;;;;;;;5.65;2.97;;;;;;;;;;4995099;28;20018;-60
2021/04/17 07:40:22;;;;;;;6.88;2.97;;;;;;;;;;4995085;28;20105;-61
2021/04/17 07:42:53;;;;;;;6.20;2.75;;;;;;;;;;4995130;28;20023;-61
2021/04/17 07:45:25;;;;;;;7.10;2.53;;;;;;;;;;4995030;28;20034;-61
2021/04/17 07:47:58;;;;;;;8.07;2.78;;;;;;;;;;4994283;28;20022;-60
2021/04/17 07:50:35;;;;;;;6.20;3.13;;;;;;;;;;4994902;28;20037;-61
2021/04/17 07:53:02;;;;;;;5.68;2.75;;;;;;;;;;4994925;28;20109;-61
2021/04/17 07:55:32;;;;;;;6.20;2.85;;;;;;;;;;4994844;28;20026;-61
2021/04/17 07:58:00;;;;;;;5.43;3.20;;;;;;;;;;4994973;28;20066;-61
2021/04/17 08:00:28;;;;;;;6.22;2.45;;;;;;;;;;4994684;28;20019;-61
2021/04/17 08:02:56;;;;;;;5.75;2.60;;;;;;;;;;4994622;28;20049;-61
2021/04/17 08:05:24;;;;;;;6.78;2.58;;;;;;;;;;4994827;28;20026;-61
2021/04/17 08:07:52;;;;;;;6.97;2.47;;;;;;;;;;4994661;28;20023;-61
2021/04/17 08:10:20;;;;;;;6.70;2.75;;;;;;;;;;4994449;28;20019;-61
2021/04/17 08:12:48;;;;;;;5.18;2.17;;;;;;;;;;4994651;28;20498;-61
2021/04/17 08:15:17;;;;;;;4.88;2.35;;;;;;;;;;4993224;28;20425;-61
2021/04/17 08:17:45;;;;;;;4.72;2.85;;;;;;;;;;4994321;28;20113;-61
2021/04/17 08:20:14;;;;;;;7.75;3.15;;;;;;;;;;4994463;28;20018;-61
2021/04/17 08:22:42;;;;;;;5.78;2.45;;;;;;;;;;4993099;28;20389;-61
2021/04/17 08:25:10;;;;;;;4.93;2.70;;;;;;;;;;4994312;28;20057;-61
2021/04/17 08:27:37;;;;;;;5.57;2.70;;;;;;;;;;4994065;28;20046;-61
2021/04/17 08:30:09;;;;;;;5.63;2.70;;;;;;;;;;4994339;28;20053;-61
2021/04/17 08:32:43;;;;;;;5.35;2.65;;;;;;;;;;4994323;28;20478;-61
2021/04/17 08:35:19;;;;;;;5.70;2.63;;;;;;;;;;4994145;28;20023;-61
2021/04/17 08:37:52;;;;;;;6.30;2.75;;;;;;;;;;4994038;28;20019;-62
2021/04/17 08:40:40;;;;;;;5.18;2.42;;;;;;;;;;4994174;28;20395;-61
2021/04/17 08:43:17;;;;;;;4.47;2.53;;;;;;;;;;4994109;28;20022;-61
2021/04/17 08:46:08;;;;;;;4.38;2.45;;;;;;;;;;4994099;28;20057;-61
2021/04/17 08:48:45;;;;;;;5.60;2.70;;;;;;;;;;4994120;28;20027;-62
2021/04/17 08:51:31;;;;;;;6.65;2.53;;;;;;;;;;4993857;28;20042;-61
2021/04/17 08:54:08;;;;;;;4.22;1.92;;;;;;;;;;4994055;28;20026;-61
2021/04/17 08:56:55;;;;;;;5.38;2.70;;;;;;;;;;4993693;28;20018;-61
2021/04/17 08:59:25;;;;;;;7.70;2.47;;;;;;;;;;4993547;28;20061;-61
2021/04/17 09:01:52;;;;;;;6.53;2.45;;;;;;;;;;4993638;28;20022;-62
2021/04/17 09:04:22;;;;;;;6.18;2.78;;;;;;;;;;4993619;28;20441;-61
2021/04/17 09:06:50;;;;;;;5.85;2.65;;;;;;;;;;4993936;28;20030;-61
2021/04/17 09:09:20;;;;;;;6.03;2.30;;;;;;;;;;4993499;28;20029;-61
2021/04/17 09:11:47;;;;;;;5.70;2.47;;;;;;;;;;4993398;28;20030;-61
2021/04/17 09:14:39;;;;;;;4.68;2.35;;;;;;;;;;4993536;28;20045;-61
2021/04/17 09:17:26;;;;;;;6.68;2.33;;;;;;;;;;4963766;28;20031;-61
2021/04/17 09:19:53;;;;;;;5.63;2.65;;;;;;;;;;4992907;28;20069;-61
2021/04/17 09:22:27;;;;;;;5.40;2.30;;;;;;;;;;4993401;28;20026;-61
2021/04/17 09:25:06;;;;;;;5.43;2.50;;;;;;;;;;4993298;28;20034;-62
2021/04/17 09:27:34;;;;;;;4.55;2.30;;;;;;;;;;4993078;28;20077;-62
2021/04/17 09:30:06;;;;;;;5.68;2.42;;;;;;;;;;4993218;28;20034;-61
2021/04/17 09:32:34;;;;;;;5.95;2.58;;;;;;;;;;4993331;28;20482;-60
2021/04/17 09:35:01;;;;;;;4.10;2.30;;;;;;;;;;4993219;28;20030;-61
2021/04/17 09:37:32;;;;;;;6.30;2.47;;;;;;;;;;4992974;28;20026;-62
2021/04/17 09:40:00;;;;;;;4.03;2.15;;;;;;;;;;4993172;28;20030;-61
2021/04/17 09:42:32;;;;;;;3.35;2.00;;;;;;;;;;4993260;28;20029;-61
2021/04/17 09:45:00;;;;;;;5.57;2.70;;;;;;;;;;4993108;28;20482;-61
2021/04/17 09:47:28;;;;;;;4.63;2.30;;;;;;;;;;4993061;28;20019;-62
2021/04/17 09:49:56;;;;;;;5.45;2.65;;;;;;;;;;4992902;28;20501;-62
2021/04/17 09:52:24;;;;;;;5.03;2.42;;;;;;;;;;4975741;28;20367;-61
2021/04/17 09:55:01;;;;;;;3.58;2.08;;;;;;;;;;4992941;28;20030;-61
2021/04/17 09:57:29;;;;;;;3.40;2.25;;;;;;;;;;4992903;28;20091;-61
2021/04/17 09:59:56;;;;;;;3.38;2.13;;;;;;;;;;4993104;28;20036;-61
2021/04/17 10:02:24;;;;;;;4.55;2.38;;;;;;;;;;4992937;28;20018;-62
2021/04/17 10:04:59;;;;;;;3.33;2.17;;;;;;;;;;4992796;28;20037;-61
2021/04/17 10:07:26;;;;;;;3.92;2.35;;;;;;;;;;4992956;28;20105;-62
2021/04/17 10:10:04;;;;;;;4.72;2.38;;;;;;;;;;4992766;28;20054;-61
2021/04/17 10:12:31;;;;;;;4.22;2.20;;;;;;;;;;4996452;28;20026;-61
2021/04/17 10:15:17;;;;;;;5.15;2.30;;;;;;;;;;4996666;28;20034;-61
2021/04/17 10:17:45;;;;;;;4.38;2.08;;;;;;;;;;4996589;28;20033;-61
2021/04/17 10:20:12;;;;;;;4.10;2.33;;;;;;;;;;4996520;28;20030;-60
2021/04/17 10:22:40;;;;;;;5.35;2.30;;;;;;;;;;4994947;28;20438;-60
2021/04/17 10:25:09;;;;;;;7.00;2.25;;;;;;;;;;4995028;28;20121;-60
2021/04/17 10:27:37;;;;;;;4.15;2.03;;;;;;;;;;4996156;28;20046;-60
2021/04/17 10:30:24;;;;;;;3.58;2.10;;;;;;;;;;4996282;28;20030;-61
2021/04/17 10:32:51;;;;;;;3.92;2.47;;;;;;;;;;4996486;28;20027;-61
2021/04/17 10:35:18;;;;;;;3.28;1.88;;;;;;;;;;4996127;28;20022;-60
2021/04/17 10:37:47;;;;;;;3.28;2.10;;;;;;;;;;4996040;28;20038;-60
2021/04/17 10:40:16;;;;;;;4.60;2.00;;;;;;;;;;4996060;28;20057;-60
2021/04/17 10:42:46;;;;;;;5.35;2.15;;;;;;;;;;4995913;28;20023;-61
2021/04/17 10:45:14;;;;;;;2.88;1.80;;;;;;;;;;4995947;28;20018;-62
2021/04/17 10:47:42;;;;;;;3.83;2.30;;;;;;;;;;4996004;28;20089;-61
2021/04/17 10:50:22;;;;;;;2.58;1.95;;;;;;;;;;4995864;28;20406;-60
2021/04/17 10:53:09;;;;;;;3.45;2.20;;;;;;;;;;4995697;28;20497;-60
2021/04/17 10:55:41;;;;;;;4.70;2.30;;;;;;;;;;4995818;28;20386;-61
2021/04/17 10:58:20;;;;;;;5.30;2.33;;;;;;;;;;4995661;28;20038;-61
2021/04/17 11:00:48;;;;;;;3.20;1.70;;;;;;;;;;4995642;28;20018;-60
2021/04/17 11:03:16;;;;;;;3.22;1.90;;;;;;;;;;4995783;28;20033;-61
2021/04/17 11:05:44;;;;;;;3.20;1.90;;;;;;;;;;4995620;28;20060;-61
2021/04/17 11:08:15;;;;;;;3.03;1.98;;;;;;;;;;4995403;28;20030;-61
2021/04/17 11:10:42;;;;;;;3.40;1.90;;;;;;;;;;4995651;28;20018;-61
2021/04/17 11:13:09;;;;;;;3.50;1.75;;;;;;;;;;4995425;28;20027;-62
2021/04/17 11:15:37;;;;;;;3.05;1.73;;;;;;;;;;4995228;28;20022;-62
2021/04/17 11:18:15;;;;;;;5.75;2.30;;;;;;;;;;4995414;28;20033;-62
2021/04/17 11:20:46;;;;;;;4.40;2.10;;;;;;;;;;4995533;28;20425;-61
2021/04/17 11:23:31;;;;;;;3.53;1.70;;;;;;;;;;4994096;28;20509;-61
2021/04/17 11:25:59;;;;;;;4.07;2.05;;;;;;;;;;4995269;28;20054;-61
2021/04/17 11:28:27;;;;;;;4.00;1.90;;;;;;;;;;4995380;28;20018;-61
2021/04/17 11:30:58;;;;;;;4.07;2.03;;;;;;;;;;4995349;28;20482;-61
2021/04/17 11:33:25;;;;;;;4.13;1.92;;;;;;;;;;4995217;28;20022;-61
2021/04/17 11:35:53;;;;;;;4.68;2.03;;;;;;;;;;4994878;28;20030;-60
2021/04/17 11:38:20;;;;;;;5.00;2.10;;;;;;;;;;4994910;28;20043;-60
2021/04/17 11:40:48;;;;;;;4.63;2.15;;;;;;;;;;4995064;28;20014;-61
2021/04/17 11:43:15;;;;;;;3.17;1.90;;;;;;;;;;4994541;28;20053;-60
2021/04/17 11:45:42;;;;;;;2.83;1.67;;;;;;;;;;4992757;28;20025;-61
2021/04/17 11:48:09;;;;;;;3.88;1.95;;;;;;;;;;4975261;28;20031;-62
2021/04/17 11:50:36;;;;;;;2.45;1.50;;;;;;;;;;4975171;28;20019;-61
2021/04/17 11:53:03;;;;;;;7.53;1.92;;;;;;;;;;4974384;28;20441;-61
2021/04/17 11:55:30;;;;;;;20.77;2.30;;;;;;;;;;4986233;28;20023;-62
2021/04/17 11:57:57;;;;;;;8.55;1.75;;;;;;;;;;4976713;28;20052;-62
2021/04/17 12:00:24;;;;;;;8.63;1.70;;;;;;;;;;4994393;28;20022;-62
2021/04/17 12:02:51;;;;;;;6.68;2.10;;;;;;;;;;4994435;28;20175;-62
2021/04/17 12:05:19;;;;;;;6.18;2.05;;;;;;;;;;4994511;28;20058;-61
2021/04/17 12:07:46;;;;;;;7.05;1.50;;;;;;;;;;4994183;28;20406;-60
2021/04/17 12:10:16;;;;;;;7.53;1.50;;;;;;;;;;4994002;28;20109;-62
2021/04/17 12:12:43;;;;;;;7.07;1.58;;;;;;;;;;4994411;28;20023;-62
2021/04/17 12:15:10;;;;;;;7.43;1.42;;;;;;;;;;4994391;28;20076;-62
2021/04/17 12:17:37;;;;;;;6.60;1.58;;;;;;;;;;4993913;28;20394;-62
2021/04/17 12:20:05;;;;;;;7.75;1.70;;;;;;;;;;4993823;28;20367;-61
2021/04/17 12:22:32;;;;;;;8.73;1.85;;;;;;;;;;4994289;28;20415;-62
2021/04/17 12:24:59;;;;;;;14.32;2.30;;;;;;;;;;4993536;28;20820;-61
2021/04/17 12:27:26;;;;;;;12.23;1.70;;;;;;;;;;4993080;28;20066;-61
2021/04/17 12:29:57;;;;;;;7.35;1.80;;;;;;;;;;4993698;28;20036;-61
2021/04/17 12:32:26;;;;;;;7.10;1.83;;;;;;;;;;4977064;28;20437;-60
2021/04/17 12:34:53;;;;;;;9.95;1.80;;;;;;;;;;4993484;28;20074;-60
2021/04/17 12:37:20;;;;;;;5.57;1.80;;;;;;;;;;4993446;28;20023;-63
2021/04/17 12:39:47;;;;;;;7.78;1.80;;;;;;;;;;4993963;28;20374;-62
2021/04/17 12:42:15;;;;;;;8.45;1.70;;;;;;;;;;4994010;28;20031;-63
2021/04/17 12:44:42;;;;;;;8.20;1.73;;;;;;;;;;4993388;28;20084;-62
2021/04/17 12:47:09;;;;;;;13.15;2.25;;;;;;;;;;4987456;28;20031;-60
2021/04/17 12:49:36;;;;;;;7.55;1.70;;;;;;;;;;4988175;28;20031;-59
2021/04/17 12:52:04;;;;;;;8.73;1.80;;;;;;;;;;4992852;28;20109;-62
2021/04/17 12:54:31;;;;;;;12.80;2.47;;;;;;;;;;4992145;28;20026;-61
2021/04/17 12:56:58;;;;;;;8.27;2.00;;;;;;;;;;4992478;28;20105;-62
2021/04/17 12:59:25;;;;;;;11.25;2.13;;;;;;;;;;4988353;28;20038;-63
2021/04/17 13:01:53;;;;;;;14.25;2.65;;;;;;;;;;4993391;28;20097;-62
2021/04/17 13:04:20;;;;;;;10.32;1.90;;;;;;;;;;4993100;28;20466;-62
2021/04/17 13:06:47;;;;;;;13.27;2.15;;;;;;;;;;4991254;28;20386;-66
2021/04/17 13:09:14;;;;;;;18.30;2.45;;;;;;;;;;4984373;28;20022;-60
2021/04/17 13:11:41;;;;;;;12.13;2.00;;;;;;;;;;4975798;28;20080;-64
2021/04/17 13:14:08;;;;;;;9.52;2.10;;;;;;;;;;4992934;28;20467;-61
2021/04/17 13:16:35;;;;;;;10.68;1.92;;;;;;;;;;4991881;28;20022;-58
2021/04/17 13:19:02;;;;;;;10.13;2.20;;;;;;;;;;4971797;28;20056;-59
2021/04/17 13:21:29;;;;;;;9.32;1.80;;;;;;;;;;4991940;28;20027;-59
2021/04/17 13:23:56;;;;;;;5.72;1.85;;;;;;;;;;4993053;28;20027;-60
2021/04/17 13:26:23;;;;;;;11.35;2.03;;;;;;;;;;4992026;28;20584;-60
2021/04/17 13:28:51;;;;;;;15.95;2.30;;;;;;;;;;4990989;28;20034;-60
2021/04/17 13:31:18;;;;;;;8.95;2.45;;;;;;;;;;4989244;28;20156;-61
2021/04/17 13:33:45;;;;;;;8.20;1.80;;;;;;;;;;4992823;28;20106;-60
2021/04/17 13:36:12;;;;;;;9.93;1.83;;;;;;;;;;4992109;28;20058;-60
2021/04/17 13:38:39;;;;;;;14.30;1.90;;;;;;;;;;4992299;28;20030;-58
2021/04/17 13:41:06;;;;;;;6.70;1.70;;;;;;;;;;4988148;28;20101;-60
2021/04/17 13:43:33;;;;;;;14.70;1.80;;;;;;;;;;4991360;28;20112;-58
2021/04/17 13:46:00;;;;;;;17.58;2.58;;;;;;;;;;4991479;28;20033;-59
2021/04/17 13:48:27;;;;;;;8.95;1.85;;;;;;;;;;4991920;28;20045;-59
2021/04/17 13:50:55;;;;;;;9.82;2.17;;;;;;;;;;4988032;28;20027;-59
2021/04/17 13:53:22;;;;;;;11.43;2.00;;;;;;;;;;4992761;28;20026;-60
2021/04/17 13:55:49;;;;;;;10.15;1.83;;;;;;;;;;4992244;28;20467;-60
2021/04/17 13:58:21;;;;;;;10.02;1.95;;;;;;;;;;4991211;28;20042;-59
2021/04/17 14:00:48;;;;;;;11.23;2.08;;;;;;;;;;4987329;28;20088;-64
2021/04/17 14:03:15;;;;;;;6.78;1.75;;;;;;;;;;4992245;28;20031;-62
2021/04/17 14:05:43;;;;;;;12.00;2.70;;;;;;;;;;4991943;28;20042;-62
2021/04/17 14:08:11;;;;;;;11.88;2.20;;;;;;;;;;4991271;28;20026;-63
2021/04/17 14:10:41;;;;;;;13.10;1.92;;;;;;;;;;4987217;28;20057;-63
2021/04/17 14:13:08;;;;;;;14.25;2.22;;;;;;;;;;4992613;28;20096;-63
2021/04/17 14:15:35;;;;;;;12.40;2.17;;;;;;;;;;4992510;28;20073;-62
2021/04/17 14:18:02;;;;;;;9.57;2.50;;;;;;;;;;4991285;28;20033;-63
2021/04/17 14:20:29;;;;;;;11.98;1.92;;;;;;;;;;4987966;28;20026;-61
2021/04/17 14:22:56;;;;;;;9.77;2.10;;;;;;;;;;4991163;28;20389;-62
2021/04/17 14:25:23;;;;;;;11.55;2.55;;;;;;;;;;4992541;28;20030;-61
2021/04/17 14:27:50;;;;;;;8.52;2.40;;;;;;;;;;4991695;28;20141;-61
2021/04/17 14:30:18;;;;;;;8.88;1.80;;;;;;;;;;4990869;28;20053;-60
2021/04/17 14:32:45;;;;;;;13.25;2.22;;;;;;;;;;4986268;28;20026;-62
2021/04/17 14:35:12;;;;;;;8.13;1.80;;;;;;;;;;4992462;28;20022;-61
2021/04/17 14:37:39;;;;;;;11.43;2.33;;;;;;;;;;4990606;28;20371;-62
2021/04/17 14:40:07;;;;;;;11.82;2.00;;;;;;;;;;4991396;28;20031;-61
2021/04/17 14:42:35;;;;;;;12.98;2.30;;;;;;;;;;4987655;28;20022;-62
2021/04/17 14:45:03;;;;;;;16.35;2.58;;;;;;;;;;4992096;28;20034;-61
2021/04/17 14:47:31;;;;;;;12.00;2.22;;;;;;;;;;4991562;28;20030;-62